Time;durP1;ratioP1;P1;durP2;ratioP2;P2;SDS_P1;SDS_P2;PMS_P1;PMS_P2;Temp;Humidity;BMP_temperature;BMP_pressure;BME280_temperature;BME280_humidity;BME280_pressure;Samples;Min_cycle;Max_cycle;Signal;HPM_P1;HPM_P2
2021/01/11 00:00:23;;;;;;;26.25;19.77;;;;;;;;;;5033399;28;20222;-57
2021/01/11 00:02:50;;;;;;;25.33;19.00;;;;;;;;;;5033077;28;20202;-57
2021/01/11 00:05:18;;;;;;;26.13;19.50;;;;;;;;;;5033393;28;20210;-57
2021/01/11 00:07:44;;;;;;;25.45;20.88;;;;;;;;;;5033287;28;20598;-57
2021/01/11 00:10:13;;;;;;;26.15;20.80;;;;;;;;;;5033363;28;20591;-57
2021/01/11 00:12:40;;;;;;;28.83;20.85;;;;;;;;;;5032925;28;20206;-57
2021/01/11 00:15:08;;;;;;;29.23;20.75;;;;;;;;;;5032952;28;20203;-57
2021/01/11 00:17:35;;;;;;;28.00;20.35;;;;;;;;;;5033186;28;20584;-56
2021/01/11 00:20:01;;;;;;;30.42;20.50;;;;;;;;;;5033302;28;20587;-56
2021/01/11 00:22:28;;;;;;;30.00;23.10;;;;;;;;;;5033746;28;20248;-56
2021/01/11 00:24:55;;;;;;;26.05;21.20;;;;;;;;;;5037022;28;20210;-56
2021/01/11 00:27:22;;;;;;;28.98;21.98;;;;;;;;;;5037199;28;20252;-57
2021/01/11 00:29:49;;;;;;;29.85;22.00;;;;;;;;;;5036865;28;20272;-57
2021/01/11 00:32:16;;;;;;;26.75;21.75;;;;;;;;;;5037269;28;20232;-56
2021/01/11 00:34:43;;;;;;;34.67;22.70;;;;;;;;;;5037162;28;20203;-58
2021/01/11 00:37:10;;;;;;;31.02;22.85;;;;;;;;;;5037029;28;20202;-57
2021/01/11 00:39:37;;;;;;;31.83;22.25;;;;;;;;;;5036788;28;20721;-57
2021/01/11 00:42:04;;;;;;;33.10;23.20;;;;;;;;;;5037114;28;20213;-57
2021/01/11 00:44:32;;;;;;;30.80;22.17;;;;;;;;;;5037456;28;20297;-57
2021/01/11 00:46:59;;;;;;;30.40;22.65;;;;;;;;;;5037217;28;20198;-57
2021/01/11 00:49:26;;;;;;;29.00;22.55;;;;;;;;;;5036934;28;20226;-58
2021/01/11 00:51:52;;;;;;;31.50;22.58;;;;;;;;;;5036626;28;20581;-57
2021/01/11 00:54:19;;;;;;;30.83;23.00;;;;;;;;;;5036999;28;20206;-57
2021/01/11 00:56:46;;;;;;;27.75;22.23;;;;;;;;;;5036463;28;20650;-56
2021/01/11 00:59:13;;;;;;;32.70;23.48;;;;;;;;;;5036245;28;20226;-57
2021/01/11 01:01:48;;;;;;;31.05;23.08;;;;;;;;;;5036262;28;20293;-57
2021/01/11 01:04:15;;;;;;;32.05;21.98;;;;;;;;;;5036727;28;20191;-57
2021/01/11 01:06:41;;;;;;;28.17;21.85;;;;;;;;;;5036539;28;20202;-56
2021/01/11 01:09:08;;;;;;;29.70;22.92;;;;;;;;;;5036522;28;20276;-57
2021/01/11 01:11:37;;;;;;;31.08;20.63;;;;;;;;;;5036089;28;20690;-57
2021/01/11 01:14:04;;;;;;;31.80;22.10;;;;;;;;;;5036276;28;20698;-57
2021/01/11 01:16:31;;;;;;;26.48;21.15;;;;;;;;;;5036073;28;20244;-57
2021/01/11 01:18:58;;;;;;;37.42;23.20;;;;;;;;;;5035831;28;20209;-57
2021/01/11 01:21:25;;;;;;;28.45;20.33;;;;;;;;;;5036313;28;20633;-56
2021/01/11 01:23:52;;;;;;;29.85;23.08;;;;;;;;;;5036257;28;20213;-56
2021/01/11 01:26:19;;;;;;;29.95;23.05;;;;;;;;;;5035806;28;20217;-57
2021/01/11 01:28:46;;;;;;;28.63;21.65;;;;;;;;;;5035558;28;20218;-57
2021/01/11 01:31:13;;;;;;;29.42;21.58;;;;;;;;;;5035915;28;20202;-57
2021/01/11 01:33:40;;;;;;;30.25;21.92;;;;;;;;;;5035696;28;20206;-57
2021/01/11 01:36:07;;;;;;;30.77;22.67;;;;;;;;;;5035047;28;20670;-56
2021/01/11 01:38:34;;;;;;;27.73;20.48;;;;;;;;;;5035876;28;20202;-56
2021/01/11 01:41:01;;;;;;;27.92;21.38;;;;;;;;;;5035416;28;20230;-56
2021/01/11 01:43:28;;;;;;;28.52;21.83;;;;;;;;;;5035820;28;20229;-56
2021/01/11 01:45:54;;;;;;;32.22;21.90;;;;;;;;;;5035531;28;20206;-56
2021/01/11 01:48:22;;;;;;;32.10;22.33;;;;;;;;;;5035512;28;20263;-57
2021/01/11 01:50:49;;;;;;;31.25;23.40;;;;;;;;;;5035886;28;20706;-57
2021/01/11 01:53:16;;;;;;;29.70;20.50;;;;;;;;;;5035705;28;20229;-57
2021/01/11 01:55:43;;;;;;;30.08;21.55;;;;;;;;;;5035477;28;20210;-57
2021/01/11 01:58:11;;;;;;;27.58;21.48;;;;;;;;;;5035650;28;20221;-57
2021/01/11 02:00:38;;;;;;;28.15;20.80;;;;;;;;;;5035276;28;20223;-57
2021/01/11 02:03:05;;;;;;;30.25;22.00;;;;;;;;;;5035327;28;20702;-57
2021/01/11 02:05:31;;;;;;;30.23;20.70;;;;;;;;;;5035576;28;20198;-57
2021/01/11 02:08:03;;;;;;;31.40;21.58;;;;;;;;;;5036622;28;20582;-56
2021/01/11 02:10:37;;;;;;;30.95;21.48;;;;;;;;;;5036355;28;20282;-57
2021/01/11 02:13:14;;;;;;;32.53;22.80;;;;;;;;;;5035793;28;20194;-57
2021/01/11 02:15:44;;;;;;;28.60;20.92;;;;;;;;;;5035544;28;20186;-57
2021/01/11 02:18:13;;;;;;;28.52;22.65;;;;;;;;;;5035344;28;20199;-56
2021/01/11 02:21:06;;;;;;;27.63;21.58;;;;;;;;;;5035763;28;20223;-57
2021/01/11 02:23:51;;;;;;;32.50;22.00;;;;;;;;;;5034994;28;20635;-56
2021/01/11 02:26:26;;;;;;;27.80;21.50;;;;;;;;;;5035100;28;20252;-56
2021/01/11 02:28:59;;;;;;;32.17;23.52;;;;;;;;;;5034675;28;20213;-56
2021/01/11 02:31:28;;;;;;;33.72;22.85;;;;;;;;;;5034680;28;20197;-56
2021/01/11 02:33:56;;;;;;;30.42;22.85;;;;;;;;;;5034932;28;20210;-56
2021/01/11 02:36:23;;;;;;;30.40;23.67;;;;;;;;;;5034832;28;20705;-56
2021/01/11 02:38:50;;;;;;;33.25;23.90;;;;;;;;;;5034545;28;20650;-57
2021/01/11 02:41:17;;;;;;;29.58;23.95;;;;;;;;;;5034657;28;20202;-56
2021/01/11 02:43:44;;;;;;;35.95;24.42;;;;;;;;;;5034881;28;20202;-57
2021/01/11 02:46:11;;;;;;;31.80;23.25;;;;;;;;;;5034002;28;20229;-56
2021/01/11 02:48:41;;;;;;;30.67;24.95;;;;;;;;;;5034907;28;20226;-56
2021/01/11 02:51:12;;;;;;;30.13;21.50;;;;;;;;;;5034769;28;20186;-56
2021/01/11 02:53:43;;;;;;;31.35;23.90;;;;;;;;;;5034721;28;20193;-56
2021/01/11 02:56:11;;;;;;;31.63;23.17;;;;;;;;;;5035354;28;20191;-57
2021/01/11 02:58:47;;;;;;;30.00;23.25;;;;;;;;;;5034505;28;20202;-56
2021/01/11 03:01:16;;;;;;;33.15;24.13;;;;;;;;;;5034737;28;20562;-56
2021/01/11 03:03:44;;;;;;;30.58;23.38;;;;;;;;;;5034536;28;20584;-56
2021/01/11 03:06:12;;;;;;;30.85;22.15;;;;;;;;;;5034455;28;20210;-56
2021/01/11 03:08:39;;;;;;;31.15;23.98;;;;;;;;;;5034127;28;20218;-56
2021/01/11 03:11:05;;;;;;;34.40;23.83;;;;;;;;;;5033790;28;20706;-56
2021/01/11 03:13:32;;;;;;;29.77;22.48;;;;;;;;;;5033883;28;20214;-56
2021/01/11 03:15:59;;;;;;;30.77;22.92;;;;;;;;;;5034148;28;20313;-57
2021/01/11 03:18:26;;;;;;;31.05;22.15;;;;;;;;;;5034154;28;20576;-57
2021/01/11 03:20:53;;;;;;;30.08;22.08;;;;;;;;;;5033708;28;20244;-57
2021/01/11 03:23:20;;;;;;;32.47;23.80;;;;;;;;;;5033898;28;20198;-57
2021/01/11 03:25:47;;;;;;;28.42;21.75;;;;;;;;;;5034532;28;20613;-57
2021/01/11 03:28:13;;;;;;;27.70;21.40;;;;;;;;;;5033634;28;20264;-56
2021/01/11 03:30:40;;;;;;;40.38;22.45;;;;;;;;;;5033885;28;20288;-56
2021/01/11 03:33:07;;;;;;;28.85;21.65;;;;;;;;;;5033481;28;20678;-56
2021/01/11 03:35:33;;;;;;;27.70;21.27;;;;;;;;;;5033900;28;20206;-56
2021/01/11 03:38:01;;;;;;;24.58;20.27;;;;;;;;;;5033763;28;20198;-57
2021/01/11 03:40:28;;;;;;;23.38;19.83;;;;;;;;;;5034022;28;20237;-57
2021/01/11 03:42:54;;;;;;;30.48;20.15;;;;;;;;;;5033997;28;20283;-56
2021/01/11 03:45:21;;;;;;;29.02;22.35;;;;;;;;;;5033820;28;20271;-57
2021/01/11 03:47:48;;;;;;;23.85;19.33;;;;;;;;;;5033321;28;20805;-57
2021/01/11 03:50:15;;;;;;;27.02;20.15;;;;;;;;;;5033330;28;20233;-57
2021/01/11 03:52:41;;;;;;;26.80;20.20;;;;;;;;;;5033895;28;20210;-57
2021/01/11 03:55:09;;;;;;;24.30;18.83;;;;;;;;;;5033585;28;20202;-57
2021/01/11 03:57:36;;;;;;;23.48;17.73;;;;;;;;;;5033773;28;20213;-57
2021/01/11 04:00:06;;;;;;;23.42;18.80;;;;;;;;;;5033529;28;20225;-56
2021/01/11 04:02:33;;;;;;;27.63;20.40;;;;;;;;;;5034570;28;20261;-57
2021/01/11 04:07:34;;;;;;;24.38;18.48;;;;;;;;;;5111778;27;20946;-57
2021/01/11 04:10:01;;;;;;;29.50;19.88;;;;;;;;;;5110679;28;20219;-56
2021/01/11 04:12:28;;;;;;;26.75;19.10;;;;;;;;;;5111468;28;20278;-57
2021/01/11 04:14:54;;;;;;;24.27;17.70;;;;;;;;;;5111591;28;20199;-58
2021/01/11 04:17:21;;;;;;;24.10;17.45;;;;;;;;;;5111248;28;20203;-58
2021/01/11 04:22:15;;;;;;;22.40;18.70;;;;;;;;;;5070445;22;20225;-61
2021/01/11 04:24:43;;;;;;;23.55;17.05;;;;;;;;;;5051875;28;20209;-62
2021/01/11 04:27:10;;;;;;;22.13;17.17;;;;;;;;;;5050504;28;20218;-61
2021/01/11 04:29:36;;;;;;;26.10;18.65;;;;;;;;;;5051325;28;20209;-62
2021/01/11 04:32:03;;;;;;;24.00;18.45;;;;;;;;;;5051963;28;20221;-61
2021/01/11 04:34:30;;;;;;;22.27;17.38;;;;;;;;;;5053018;28;20684;-62
2021/01/11 04:36:57;;;;;;;24.08;16.98;;;;;;;;;;5053228;28;20304;-62
2021/01/11 04:39:23;;;;;;;22.38;16.88;;;;;;;;;;5053209;28;20206;-62
2021/01/11 04:41:52;;;;;;;24.40;17.02;;;;;;;;;;5052902;28;20229;-62
2021/01/11 04:44:21;;;;;;;21.42;16.30;;;;;;;;;;5052066;28;20212;-61
2021/01/11 04:46:48;;;;;;;21.52;16.48;;;;;;;;;;5051595;28;20214;-62
2021/01/11 04:49:15;;;;;;;21.88;16.52;;;;;;;;;;5052087;28;20232;-62
2021/01/11 04:51:42;;;;;;;23.80;15.95;;;;;;;;;;5050958;28;20229;-61
2021/01/11 04:54:09;;;;;;;23.70;16.60;;;;;;;;;;5051651;28;20201;-61
2021/01/11 04:56:40;;;;;;;21.40;17.10;;;;;;;;;;5051047;28;20594;-61
2021/01/11 04:59:08;;;;;;;22.58;16.10;;;;;;;;;;5050055;28;20300;-62
2021/01/11 05:01:35;;;;;;;19.60;16.23;;;;;;;;;;5050451;28;20312;-61
2021/01/11 05:04:03;;;;;;;23.17;16.98;;;;;;;;;;5050524;28;20248;-61
2021/01/11 05:06:30;;;;;;;20.30;16.30;;;;;;;;;;5050042;28;20229;-61
2021/01/11 05:09:04;;;;;;;20.50;16.83;;;;;;;;;;5049914;28;20202;-61
2021/01/11 05:11:30;;;;;;;20.17;15.15;;;;;;;;;;5049849;28;20317;-62
2021/01/11 05:13:57;;;;;;;19.17;16.13;;;;;;;;;;5049820;28;20209;-62
2021/01/11 05:16:25;;;;;;;22.60;16.50;;;;;;;;;;5049526;28;20732;-62
2021/01/11 05:18:56;;;;;;;22.20;16.90;;;;;;;;;;5037003;28;20210;-62
2021/01/11 05:21:42;;;;;;;21.17;15.70;;;;;;;;;;5038373;28;20241;-62
2021/01/11 05:24:23;;;;;;;19.20;15.55;;;;;;;;;;5037477;28;20209;-62
2021/01/11 05:26:50;;;;;;;20.88;14.93;;;;;;;;;;5036755;28;20268;-61
2021/01/11 05:29:17;;;;;;;21.15;15.63;;;;;;;;;;5036976;28;20202;-61
2021/01/11 05:31:53;;;;;;;17.95;13.80;;;;;;;;;;5035999;28;20705;-61
2021/01/11 05:34:19;;;;;;;20.58;15.07;;;;;;;;;;5036020;28;20642;-62
2021/01/11 05:36:47;;;;;;;17.25;14.02;;;;;;;;;;5036067;28;20205;-62
2021/01/11 05:39:13;;;;;;;17.50;14.27;;;;;;;;;;5035742;28;20688;-61
2021/01/11 05:41:41;;;;;;;17.85;14.70;;;;;;;;;;5035723;28;20708;-62
2021/01/11 05:44:12;;;;;;;17.42;13.75;;;;;;;;;;5035929;28;20260;-61
2021/01/11 05:46:39;;;;;;;16.95;14.18;;;;;;;;;;5036014;28;20213;-62
2021/01/11 05:49:07;;;;;;;17.52;14.30;;;;;;;;;;5035992;28;20285;-61
2021/01/11 05:51:34;;;;;;;17.85;14.02;;;;;;;;;;5036293;28;20218;-62
2021/01/11 05:54:01;;;;;;;19.60;14.20;;;;;;;;;;5037513;28;20221;-61
2021/01/11 05:56:28;;;;;;;18.55;13.93;;;;;;;;;;5038577;28;20199;-62
2021/01/11 05:59:05;;;;;;;17.40;13.55;;;;;;;;;;5036908;28;20202;-60
2021/01/11 06:01:32;;;;;;;16.52;12.60;;;;;;;;;;5036088;28;20229;-62
2021/01/11 06:03:59;;;;;;;12.20;10.90;;;;;;;;;;5036362;28;20547;-63
2021/01/11 06:06:27;;;;;;;18.65;13.20;;;;;;;;;;5035778;28;20225;-62
2021/01/11 06:08:54;;;;;;;16.75;12.75;;;;;;;;;;5035862;28;20674;-62
2021/01/11 06:11:25;;;;;;;16.60;12.90;;;;;;;;;;5035621;28;20226;-63
2021/01/11 06:13:52;;;;;;;19.35;13.50;;;;;;;;;;5036401;28;20234;-62
2021/01/11 06:16:19;;;;;;;15.30;12.15;;;;;;;;;;5037624;28;20289;-62
2021/01/11 06:18:46;;;;;;;16.20;13.10;;;;;;;;;;5038504;28;20203;-62
2021/01/11 06:21:13;;;;;;;16.55;14.38;;;;;;;;;;5035869;28;20238;-61
2021/01/11 06:23:41;;;;;;;19.20;14.23;;;;;;;;;;5041793;28;20261;-61
2021/01/11 06:26:26;;;;;;;22.02;13.95;;;;;;;;;;5046248;28;20218;-61
2021/01/11 06:28:53;;;;;;;16.60;12.75;;;;;;;;;;5050616;28;20194;-61
2021/01/11 06:31:21;;;;;;;16.25;13.80;;;;;;;;;;5040737;28;20222;-62
2021/01/11 06:33:47;;;;;;;19.85;13.43;;;;;;;;;;5036275;28;20209;-60
2021/01/11 06:36:22;;;;;;;19.23;14.98;;;;;;;;;;5034930;28;20276;-61
2021/01/11 06:38:50;;;;;;;19.30;13.90;;;;;;;;;;5035130;28;20198;-62
2021/01/11 06:41:18;;;;;;;17.17;12.75;;;;;;;;;;5034515;28;20233;-62
2021/01/11 06:43:47;;;;;;;18.92;14.50;;;;;;;;;;5034617;28;20225;-62
2021/01/11 06:46:14;;;;;;;17.75;13.77;;;;;;;;;;5034583;28;20218;-62
2021/01/11 06:48:42;;;;;;;17.13;13.35;;;;;;;;;;5034659;28;20206;-62
2021/01/11 06:51:09;;;;;;;16.85;13.63;;;;;;;;;;5034487;28;20219;-63
2021/01/11 06:53:36;;;;;;;18.05;13.88;;;;;;;;;;5036144;28;20210;-60
2021/01/11 06:56:08;;;;;;;18.50;14.60;;;;;;;;;;5035791;28;20221;-60
2021/01/11 06:58:36;;;;;;;18.75;14.30;;;;;;;;;;5034551;28;20206;-62
2021/01/11 07:01:04;;;;;;;22.02;14.82;;;;;;;;;;5034213;28;20227;-62
2021/01/11 07:03:46;;;;;;;18.98;14.98;;;;;;;;;;5034079;28;20210;-62
2021/01/11 07:06:31;;;;;;;19.65;14.25;;;;;;;;;;5034703;28;20218;-61
2021/01/11 07:09:04;;;;;;;15.93;12.50;;;;;;;;;;5034393;28;20229;-62
2021/01/11 07:11:34;;;;;;;17.13;14.40;;;;;;;;;;5033995;28;20598;-62
2021/01/11 07:14:01;;;;;;;22.33;14.73;;;;;;;;;;5035231;28;20550;-62
2021/01/11 07:16:44;;;;;;;18.95;15.13;;;;;;;;;;5035049;28;20194;-62
2021/01/11 07:19:11;;;;;;;18.13;14.35;;;;;;;;;;5035045;28;20242;-60
2021/01/11 07:21:38;;;;;;;16.92;13.50;;;;;;;;;;5034369;28;20230;-61
2021/01/11 07:24:06;;;;;;;21.52;15.10;;;;;;;;;;5035248;28;20230;-62
2021/01/11 07:26:34;;;;;;;20.42;15.60;;;;;;;;;;5036144;28;20229;-61
2021/01/11 07:29:02;;;;;;;22.67;14.77;;;;;;;;;;5035160;28;20205;-61
2021/01/11 07:31:30;;;;;;;19.55;15.30;;;;;;;;;;5036774;28;20254;-61
2021/01/11 07:34:06;;;;;;;18.45;15.02;;;;;;;;;;5039861;28;20202;-61
2021/01/11 07:36:34;;;;;;;17.25;14.60;;;;;;;;;;5038758;28;20633;-62
2021/01/11 07:39:12;;;;;;;20.05;13.60;;;;;;;;;;5035490;28;20256;-61
2021/01/11 07:41:40;;;;;;;17.88;13.77;;;;;;;;;;5035233;28;20226;-61
2021/01/11 07:44:11;;;;;;;20.33;14.57;;;;;;;;;;5034362;28;20618;-62
2021/01/11 07:46:37;;;;;;;20.73;15.27;;;;;;;;;;5034387;28;20268;-62
2021/01/11 07:49:14;;;;;;;19.83;14.90;;;;;;;;;;5036507;28;20210;-61
2021/01/11 07:51:41;;;;;;;24.20;14.95;;;;;;;;;;5034320;28;20253;-62
2021/01/11 07:54:09;;;;;;;19.40;14.80;;;;;;;;;;5035165;28;20202;-62
2021/01/11 07:56:36;;;;;;;20.42;14.85;;;;;;;;;;5033744;28;20206;-61
2021/01/11 07:59:06;;;;;;;18.92;13.85;;;;;;;;;;5034125;28;20217;-62
2021/01/11 08:01:33;;;;;;;19.65;14.88;;;;;;;;;;5033440;28;20775;-62
2021/01/11 08:04:00;;;;;;;20.25;15.30;;;;;;;;;;5034835;28;20202;-62
2021/01/11 08:06:27;;;;;;;19.77;14.05;;;;;;;;;;5033696;28;20225;-62
2021/01/11 08:08:54;;;;;;;20.20;14.45;;;;;;;;;;5033459;28;20206;-62
2021/01/11 08:11:22;;;;;;;20.67;14.13;;;;;;;;;;5033378;28;20598;-61
2021/01/11 08:13:49;;;;;;;21.00;16.00;;;;;;;;;;5033589;28;20198;-62
2021/01/11 08:16:16;;;;;;;18.40;15.13;;;;;;;;;;5033744;28;20202;-62
2021/01/11 08:18:43;;;;;;;22.38;14.52;;;;;;;;;;5033669;28;20563;-62
2021/01/11 08:21:11;;;;;;;19.45;15.13;;;;;;;;;;5033738;28;20679;-62
2021/01/11 08:23:38;;;;;;;18.13;15.40;;;;;;;;;;5033998;28;20641;-62
2021/01/11 08:26:07;;;;;;;21.33;14.15;;;;;;;;;;5033232;28;20713;-61
2021/01/11 08:28:34;;;;;;;19.50;14.48;;;;;;;;;;5033786;28;20256;-62
2021/01/11 08:31:01;;;;;;;16.85;14.15;;;;;;;;;;5033484;28;20225;-62
2021/01/11 08:33:30;;;;;;;20.38;13.90;;;;;;;;;;5035264;28;20206;-63
2021/01/11 08:36:16;;;;;;;19.30;13.80;;;;;;;;;;5034599;28;20203;-61
2021/01/11 08:39:06;;;;;;;19.00;14.73;;;;;;;;;;5034044;28;20210;-62
2021/01/11 08:41:33;;;;;;;21.55;14.68;;;;;;;;;;5034104;28;20643;-62
2021/01/11 08:44:00;;;;;;;23.70;15.05;;;;;;;;;;5034022;28;20207;-63
2021/01/11 08:46:41;;;;;;;27.52;17.98;;;;;;;;;;5033872;28;20214;-61
2021/01/11 08:49:09;;;;;;;20.15;15.82;;;;;;;;;;5033533;28;20233;-63
2021/01/11 08:51:36;;;;;;;23.55;15.73;;;;;;;;;;5033852;28;20273;-61
2021/01/11 08:54:02;;;;;;;21.75;15.88;;;;;;;;;;5038164;28;20202;-61
2021/01/11 08:56:29;;;;;;;22.17;15.45;;;;;;;;;;5043622;28;20725;-60
2021/01/11 08:58:56;;;;;;;23.67;16.10;;;;;;;;;;5043514;28;20202;-61
2021/01/11 09:01:25;;;;;;;20.30;16.33;;;;;;;;;;5042103;28;20316;-61
2021/01/11 09:03:54;;;;;;;23.80;14.50;;;;;;;;;;5040457;28;20580;-60
2021/01/11 09:06:37;;;;;;;23.58;17.05;;;;;;;;;;5039758;28;20276;-63
2021/01/11 09:09:05;;;;;;;21.92;16.02;;;;;;;;;;5037599;28;20203;-62
2021/01/11 09:11:32;;;;;;;21.52;15.95;;;;;;;;;;5036439;28;20222;-61
2021/01/11 09:14:05;;;;;;;19.52;14.85;;;;;;;;;;5038322;28;20203;-61
2021/01/11 09:16:32;;;;;;;23.80;15.75;;;;;;;;;;5037100;28;20688;-61
2021/01/11 09:19:09;;;;;;;20.42;13.45;;;;;;;;;;5036716;28;20202;-61
2021/01/11 09:21:39;;;;;;;23.63;16.23;;;;;;;;;;5042502;28;20241;-61
2021/01/11 09:24:06;;;;;;;20.60;14.85;;;;;;;;;;5051971;28;20206;-62
2021/01/11 09:26:33;;;;;;;20.10;14.48;;;;;;;;;;5046944;28;20698;-62
2021/01/11 09:29:00;;;;;;;21.67;13.68;;;;;;;;;;5044926;28;20199;-62
2021/01/11 09:31:27;;;;;;;20.00;15.00;;;;;;;;;;5045798;28;20218;-61
2021/01/11 09:33:53;;;;;;;19.58;14.00;;;;;;;;;;5043760;28;20206;-61
2021/01/11 09:36:20;;;;;;;24.58;13.65;;;;;;;;;;5047478;28;20225;-61
2021/01/11 09:38:48;;;;;;;18.10;13.77;;;;;;;;;;5047372;28;20260;-61
2021/01/11 09:41:15;;;;;;;21.85;15.15;;;;;;;;;;5046615;28;20237;-60
2021/01/11 09:43:42;;;;;;;19.67;14.60;;;;;;;;;;5040088;28;20229;-62
2021/01/11 09:46:09;;;;;;;18.50;13.65;;;;;;;;;;5036266;28;20245;-62
2021/01/11 09:48:36;;;;;;;18.85;13.98;;;;;;;;;;5036170;28;20210;-61
2021/01/11 09:51:03;;;;;;;16.95;14.48;;;;;;;;;;5036362;28;20226;-62
2021/01/11 09:53:29;;;;;;;17.80;14.30;;;;;;;;;;5040812;28;20705;-61
2021/01/11 09:55:57;;;;;;;18.08;13.20;;;;;;;;;;5056626;28;20203;-62
2021/01/11 09:58:24;;;;;;;19.45;15.25;;;;;;;;;;5055285;28;20241;-62
2021/01/11 10:00:51;;;;;;;17.30;13.50;;;;;;;;;;5049101;28;20702;-60
2021/01/11 10:03:17;;;;;;;22.23;13.77;;;;;;;;;;5040121;28;20202;-61
2021/01/11 10:05:44;;;;;;;18.85;11.77;;;;;;;;;;5036775;28;20202;-62
2021/01/11 10:08:13;;;;;;;19.05;12.80;;;;;;;;;;5039146;28;20209;-61
2021/01/11 10:10:40;;;;;;;20.38;14.18;;;;;;;;;;5039742;28;20230;-62
2021/01/11 10:13:08;;;;;;;19.30;13.60;;;;;;;;;;5037489;28;20207;-61
2021/01/11 10:15:35;;;;;;;15.95;12.15;;;;;;;;;;5036190;28;20199;-60
2021/01/11 10:18:01;;;;;;;18.23;13.48;;;;;;;;;;5036570;28;20199;-60
2021/01/11 10:20:28;;;;;;;16.65;13.30;;;;;;;;;;5036989;28;20241;-62
2021/01/11 10:22:55;;;;;;;17.98;12.95;;;;;;;;;;5036269;28;20206;-61
2021/01/11 10:25:22;;;;;;;17.33;12.70;;;;;;;;;;5035385;28;20210;-62
2021/01/11 10:27:52;;;;;;;17.10;12.20;;;;;;;;;;5035196;28;20222;-62
2021/01/11 10:30:20;;;;;;;14.82;11.10;;;;;;;;;;5034903;28;20265;-62
2021/01/11 10:32:47;;;;;;;18.60;13.07;;;;;;;;;;5035705;28;20202;-62
2021/01/11 10:35:14;;;;;;;15.05;11.48;;;;;;;;;;5035135;28;20265;-60
2021/01/11 10:37:42;;;;;;;18.45;12.43;;;;;;;;;;5035007;28;20202;-61
2021/01/11 10:40:10;;;;;;;14.80;10.90;;;;;;;;;;5034656;28;20209;-62
2021/01/11 10:42:37;;;;;;;15.23;11.75;;;;;;;;;;5034919;28;20209;-63
2021/01/11 10:45:04;;;;;;;17.58;11.98;;;;;;;;;;5035006;28;20203;-61
2021/01/11 10:47:31;;;;;;;13.15;11.05;;;;;;;;;;5034826;28;20218;-60
2021/01/11 10:49:58;;;;;;;15.60;11.90;;;;;;;;;;5037341;28;20613;-62
2021/01/11 10:52:25;;;;;;;15.05;11.25;;;;;;;;;;5048956;28;20198;-61
2021/01/11 10:54:52;;;;;;;14.77;11.48;;;;;;;;;;5041129;28;20667;-61
2021/01/11 10:57:18;;;;;;;16.75;12.88;;;;;;;;;;5036877;28;20206;-62
2021/01/11 10:59:45;;;;;;;17.80;12.10;;;;;;;;;;5038061;28;20256;-61
2021/01/11 11:02:12;;;;;;;14.85;10.60;;;;;;;;;;5035319;28;20233;-60
2021/01/11 11:04:39;;;;;;;12.90;10.60;;;;;;;;;;5035078;28;20671;-61
2021/01/11 11:07:06;;;;;;;14.18;9.98;;;;;;;;;;5037601;28;20268;-62
2021/01/11 11:09:33;;;;;;;13.77;11.00;;;;;;;;;;5036135;28;20344;-62
2021/01/11 11:12:00;;;;;;;24.33;11.27;;;;;;;;;;5035330;28;20316;-61
2021/01/11 11:14:26;;;;;;;15.57;10.77;;;;;;;;;;5035484;28;20202;-63
2021/01/11 11:16:54;;;;;;;14.43;10.80;;;;;;;;;;5035683;28;20206;-62
2021/01/11 11:19:21;;;;;;;14.27;10.95;;;;;;;;;;5035799;28;20612;-61
2021/01/11 11:21:49;;;;;;;12.45;10.05;;;;;;;;;;5034252;28;20230;-63
2021/01/11 11:24:16;;;;;;;12.60;10.23;;;;;;;;;;5034931;28;20202;-63
2021/01/11 11:26:42;;;;;;;11.63;10.13;;;;;;;;;;5034599;28;20357;-62
2021/01/11 11:29:10;;;;;;;11.45;9.40;;;;;;;;;;5034685;28;20233;-61
2021/01/11 11:31:38;;;;;;;12.77;8.18;;;;;;;;;;5034555;28;20226;-61
2021/01/11 11:34:05;;;;;;;13.15;10.13;;;;;;;;;;5033585;28;20844;-64
2021/01/11 11:36:31;;;;;;;10.82;8.48;;;;;;;;;;5033841;28;20205;-62
2021/01/11 11:38:59;;;;;;;10.25;8.70;;;;;;;;;;5033513;28;20206;-61
2021/01/11 11:41:26;;;;;;;9.35;8.45;;;;;;;;;;5035997;28;20222;-61
2021/01/11 11:43:53;;;;;;;11.35;8.68;;;;;;;;;;5036037;28;20662;-62
2021/01/11 11:46:19;;;;;;;11.35;9.02;;;;;;;;;;5033962;28;20218;-61
2021/01/11 11:48:46;;;;;;;11.02;9.25;;;;;;;;;;5033918;28;20213;-59
2021/01/11 11:51:14;;;;;;;12.13;9.18;;;;;;;;;;5034216;28;20725;-62
2021/01/11 11:53:40;;;;;;;8.30;7.47;;;;;;;;;;5036082;28;20206;-62
2021/01/11 11:56:08;;;;;;;10.68;8.27;;;;;;;;;;5034035;28;20359;-61
2021/01/11 11:58:35;;;;;;;13.68;8.00;;;;;;;;;;5036076;28;20206;-62
2021/01/11 12:01:02;;;;;;;9.75;8.75;;;;;;;;;;5036532;28;20302;-62
2021/01/11 12:03:28;;;;;;;12.30;9.60;;;;;;;;;;5036553;28;20566;-62
2021/01/11 12:05:55;;;;;;;11.90;7.90;;;;;;;;;;5034410;28;20198;-62
2021/01/11 12:08:22;;;;;;;10.43;8.63;;;;;;;;;;5033339;28;20285;-61
2021/01/11 12:10:49;;;;;;;12.00;8.32;;;;;;;;;;5033275;28;20229;-62
2021/01/11 12:13:16;;;;;;;9.82;7.55;;;;;;;;;;5034008;28;20293;-62
2021/01/11 12:15:43;;;;;;;11.18;8.02;;;;;;;;;;5040633;28;20372;-62
2021/01/11 12:18:10;;;;;;;9.10;7.55;;;;;;;;;;5044287;28;20292;-62
2021/01/11 12:20:37;;;;;;;10.35;7.80;;;;;;;;;;5033882;28;20237;-62
2021/01/11 12:23:04;;;;;;;10.05;8.23;;;;;;;;;;5033898;28;20194;-61
2021/01/11 12:25:30;;;;;;;10.55;8.02;;;;;;;;;;5033990;28;20269;-61
2021/01/11 12:27:57;;;;;;;11.65;9.30;;;;;;;;;;5034548;28;20225;-60
2021/01/11 12:30:25;;;;;;;10.07;8.13;;;;;;;;;;5037457;28;20237;-62
2021/01/11 12:32:52;;;;;;;12.35;9.10;;;;;;;;;;5039387;28;20206;-60
2021/01/11 12:35:19;;;;;;;11.10;8.57;;;;;;;;;;5038820;28;20198;-60
2021/01/11 12:37:45;;;;;;;11.05;8.15;;;;;;;;;;5038909;28;20209;-60
2021/01/11 12:40:12;;;;;;;11.35;8.43;;;;;;;;;;5038043;28;20611;-59
2021/01/11 12:42:39;;;;;;;12.68;6.88;;;;;;;;;;5038402;28;20209;-61
2021/01/11 12:45:07;;;;;;;10.68;7.95;;;;;;;;;;5039134;28;20207;-61
2021/01/11 12:47:37;;;;;;;8.35;7.10;;;;;;;;;;5039002;28;20233;-61
2021/01/11 12:50:07;;;;;;;8.43;7.57;;;;;;;;;;5042265;28;20782;-62
2021/01/11 12:52:34;;;;;;;12.70;7.90;;;;;;;;;;5042965;28;20214;-61
2021/01/11 12:55:01;;;;;;;9.77;7.28;;;;;;;;;;5043778;28;20205;-60
2021/01/11 12:57:28;;;;;;;9.73;7.70;;;;;;;;;;5043161;28;20202;-61
2021/01/11 12:59:54;;;;;;;9.98;8.70;;;;;;;;;;5040959;28;20217;-61
2021/01/11 13:02:21;;;;;;;10.27;7.70;;;;;;;;;;5038497;28;20202;-60
2021/01/11 13:04:50;;;;;;;9.50;7.05;;;;;;;;;;5038264;28;20202;-62
2021/01/11 13:07:16;;;;;;;9.63;7.55;;;;;;;;;;5036975;28;20242;-60
2021/01/11 13:09:43;;;;;;;11.27;9.55;;;;;;;;;;5036890;28;20732;-61
2021/01/11 13:12:10;;;;;;;11.00;8.20;;;;;;;;;;5036758;28;20230;-62
2021/01/11 13:14:37;;;;;;;10.80;7.85;;;;;;;;;;5036789;28;20202;-62
2021/01/11 13:17:04;;;;;;;8.57;7.65;;;;;;;;;;5036298;28;20678;-61
2021/01/11 13:19:31;;;;;;;12.30;8.27;;;;;;;;;;5036816;28;20256;-60
2021/01/11 13:21:58;;;;;;;12.40;8.40;;;;;;;;;;5035971;28;20253;-59
2021/01/11 13:24:25;;;;;;;9.55;7.40;;;;;;;;;;5036720;28;20305;-59
2021/01/11 13:26:53;;;;;;;9.20;7.10;;;;;;;;;;5037020;28;20218;-60
2021/01/11 13:29:20;;;;;;;9.50;7.97;;;;;;;;;;5048308;28;20637;-62
2021/01/11 13:31:48;;;;;;;9.20;8.15;;;;;;;;;;5050627;28;20724;-60
2021/01/11 13:34:15;;;;;;;8.48;7.38;;;;;;;;;;5048435;28;20206;-58
2021/01/11 13:36:42;;;;;;;12.63;7.90;;;;;;;;;;5043531;28;20654;-60
2021/01/11 13:39:10;;;;;;;8.55;7.30;;;;;;;;;;5036409;28;20205;-58
2021/01/11 13:41:37;;;;;;;9.40;8.30;;;;;;;;;;5036420;28;20245;-58
2021/01/11 13:44:04;;;;;;;10.13;8.00;;;;;;;;;;5036152;28;20582;-59
2021/01/11 13:46:31;;;;;;;11.57;7.53;;;;;;;;;;5036885;28;20225;-58
2021/01/11 13:48:58;;;;;;;11.82;8.43;;;;;;;;;;5040271;28;20302;-60
2021/01/11 13:51:25;;;;;;;11.70;8.23;;;;;;;;;;5039971;28;20223;-60
2021/01/11 13:53:52;;;;;;;8.95;7.60;;;;;;;;;;5037280;28;20363;-59
2021/01/11 13:56:23;;;;;;;10.23;7.47;;;;;;;;;;5036758;28;20198;-60
2021/01/11 13:58:51;;;;;;;9.07;7.43;;;;;;;;;;5039658;28;20229;-60
2021/01/11 14:01:17;;;;;;;9.90;7.50;;;;;;;;;;5038968;28;20316;-61
2021/01/11 14:03:44;;;;;;;9.00;7.63;;;;;;;;;;5037271;28;20209;-61
2021/01/11 14:06:11;;;;;;;10.88;8.05;;;;;;;;;;5037147;28;20202;-60
2021/01/11 14:08:38;;;;;;;8.90;7.40;;;;;;;;;;5037210;28;20560;-61
2021/01/11 14:11:05;;;;;;;8.00;6.63;;;;;;;;;;5036483;28;20230;-59
2021/01/11 14:13:32;;;;;;;7.90;7.03;;;;;;;;;;5037334;28;20270;-60
2021/01/11 14:15:59;;;;;;;9.45;7.40;;;;;;;;;;5041505;28;20202;-60
2021/01/11 14:18:27;;;;;;;7.63;6.82;;;;;;;;;;5035609;28;20544;-61
2021/01/11 14:20:54;;;;;;;10.13;8.13;;;;;;;;;;5035733;28;20242;-61
2021/01/11 14:23:20;;;;;;;8.40;7.25;;;;;;;;;;5037090;28;20214;-60
2021/01/11 14:25:47;;;;;;;11.88;7.90;;;;;;;;;;5035917;28;20202;-61
2021/01/11 14:28:14;;;;;;;8.82;7.65;;;;;;;;;;5036559;28;20268;-61
2021/01/11 14:30:42;;;;;;;8.77;7.47;;;;;;;;;;5036221;28;20226;-61